Terminal Aerodrome Forecast
Issued by NWS

Home | Current Version | Previous Version | Text Only | Print | Product List | Glossary On
Versions: 1 2 3 4 5 6 7 8 9 10 11 12 13
000
FTUS45 KTFX 062300
TAFGTF
TAF
KGTF 062320Z 0700/0724 28010G20KT P6SM SCT090 BKN150
     FM070300 28010KT P6SM BKN150
     FM070600 21010KT P6SM BKN150
     FM072100 30010KT P6SM SCT080 BKN200=

USA.gov is the U.S. government's official web portal to all federal, state and local government web resources and services.